createdAt,value
2019-05-15T00:00:38.628Z,91.50
2019-05-15T00:03:41.450Z,91.50
2019-05-15T00:06:45.072Z,91.50
2019-05-15T00:09:49.187Z,91.50
2019-05-15T00:12:52.317Z,91.20
2019-05-15T00:15:55.248Z,91.20
2019-05-15T00:18:59.059Z,91.70
2019-05-15T00:22:02.291Z,91.80
2019-05-15T00:25:05.407Z,91.90
2019-05-15T00:28:09.428Z,91.50
2019-05-15T00:31:12.791Z,91.20
2019-05-15T00:34:18.082Z,91.10
2019-05-15T00:37:20.532Z,91.00
2019-05-15T00:40:23.442Z,91.00
2019-05-15T00:43:28.934Z,91.40
2019-05-15T00:46:31.178Z,91.70
2019-05-15T00:49:34.098Z,92.00
2019-05-15T00:52:39.121Z,92.70
2019-05-15T00:55:42.361Z,92.10
2019-05-15T00:58:45.302Z,92.00
2019-05-15T01:01:48.759Z,92.20
2019-05-15T01:04:51.939Z,92.40
2019-05-15T01:07:55.260Z,92.20
2019-05-15T01:10:58.384Z,92.10
2019-05-15T01:14:01.482Z,92.20
2019-05-15T01:17:04.363Z,92.60
2019-05-15T01:20:08.465Z,92.40
2019-05-15T01:23:11.722Z,92.00
2019-05-15T01:26:14.629Z,92.10
2019-05-15T01:29:18.295Z,92.40
2019-05-15T01:32:21.712Z,92.70
2019-05-15T01:35:24.630Z,92.90
2019-05-15T01:38:28.021Z,93.30
2019-05-15T01:41:31.150Z,93.60
2019-05-15T01:44:34.086Z,93.30
2019-05-15T01:47:38.862Z,93.00
2019-05-15T01:50:41.821Z,92.90
2019-05-15T01:53:44.984Z,93.10
2019-05-15T01:56:49.497Z,93.30
2019-05-15T01:59:57.101Z,93.10
2019-05-15T02:02:58.722Z,93.10
2019-05-15T02:06:02.081Z,93.30
2019-05-15T02:09:08.262Z,93.30
2019-05-15T02:12:11.460Z,93.70
2019-05-15T02:15:14.616Z,93.70
2019-05-15T02:18:19.191Z,94.70
2019-05-15T02:21:22.345Z,94.80
2019-05-15T02:24:28.387Z,95.40
2019-05-15T02:27:31.610Z,95.00
2019-05-15T02:30:34.646Z,95.10
2019-05-15T02:33:39.946Z,95.00
2019-05-15T02:36:42.385Z,95.10
2019-05-15T02:39:45.560Z,95.30
2019-05-15T02:42:49.583Z,95.20
2019-05-15T02:45:52.621Z,94.70
2019-05-15T02:48:55.536Z,95.20
2019-05-15T02:52:00.144Z,95.30
2019-05-15T02:55:03.660Z,95.20
2019-05-15T02:58:09.647Z,95.50
2019-05-15T03:01:11.393Z,95.30
2019-05-15T03:04:14.320Z,95.40
2019-05-15T03:07:19.296Z,95.60
2019-05-15T03:10:22.047Z,96.00
2019-05-15T03:13:25.083Z,96.30
2019-05-15T03:16:30.337Z,96.00
2019-05-15T03:19:32.810Z,96.00
2019-05-15T03:22:35.722Z,96.10
2019-05-15T03:25:40.540Z,96.40
2019-05-15T03:28:44.586Z,96.10
2019-05-15T03:32:01.343Z,96.00
2019-05-15T03:34:56.043Z,95.90
2019-05-15T03:37:59.842Z,96.30
2019-05-15T03:41:01.955Z,95.90
2019-05-15T03:44:04.861Z,95.70
2019-05-15T03:47:09.239Z,95.60
2019-05-15T03:50:13.405Z,96.00
2019-05-15T03:53:18.950Z,96.30
2019-05-15T03:56:21.484Z,96.50
2019-05-15T03:59:24.409Z,96.50
2019-05-15T04:02:28.789Z,96.40
2019-05-15T04:05:32.006Z,96.80
2019-05-15T04:08:34.900Z,96.50
2019-05-15T04:11:38.872Z,96.80
2019-05-15T04:14:41.926Z,96.60
2019-05-15T04:17:44.848Z,96.90
2019-05-15T04:20:49.304Z,97.00
2019-05-15T04:23:58.588Z,97.10
2019-05-15T04:27:06.401Z,96.80
2019-05-15T04:30:10.544Z,96.80
2019-05-15T04:33:13.103Z,97.00
2019-05-15T04:36:18.913Z,96.90
2019-05-15T04:39:20.963Z,96.70
2019-05-15T04:42:23.871Z,97.20
2019-05-15T04:45:31.789Z,97.30
2019-05-15T04:48:31.632Z,97.70
2019-05-15T04:51:34.529Z,97.40
2019-05-15T04:54:40.218Z,97.60
2019-05-15T04:57:42.263Z,98.40
2019-05-15T05:00:55.171Z,99.20
2019-05-15T05:03:58.903Z,98.40
2019-05-15T05:07:02.598Z,98.40
2019-05-15T05:10:09.171Z,98.80
2019-05-15T05:13:10.833Z,98.60
2019-05-15T05:16:13.736Z,99.00
2019-05-15T05:19:19.364Z,99.10
2019-05-15T05:22:21.457Z,99.50
2019-05-15T05:25:24.387Z,99.90
2019-05-15T05:28:28.974Z,99.90
2019-05-15T05:31:32.125Z,99.90
2019-05-15T05:34:35.058Z,99.90
2019-05-15T05:37:38.929Z,99.90
2019-05-15T05:40:42.793Z,99.90
2019-05-15T05:43:48.581Z,99.90
2019-05-15T05:46:50.940Z,99.90
2019-05-15T05:49:53.845Z,99.90
2019-05-15T05:52:57.928Z,99.90
2019-05-15T05:56:01.002Z,99.90
2019-05-15T05:59:03.908Z,99.90
2019-05-15T06:02:08.214Z,99.90
2019-05-15T06:05:11.372Z,99.90
2019-05-15T06:08:14.306Z,99.90
2019-05-15T06:11:18.421Z,99.90
2019-05-15T06:14:21.855Z,99.90
2019-05-15T06:17:24.775Z,99.90
2019-05-15T06:20:28.264Z,99.90
2019-05-15T06:23:34.724Z,99.90
2019-05-15T06:26:38.627Z,99.90
2019-05-15T06:29:41.722Z,99.90
2019-05-15T06:33:00.789Z,99.90
2019-05-15T06:35:49.478Z,99.90
2019-05-15T06:38:52.363Z,99.90
2019-05-15T06:41:55.282Z,98.80
2019-05-15T06:44:58.901Z,98.50
2019-05-15T06:48:02.031Z,96.60
2019-05-15T06:51:04.928Z,97.20
2019-05-15T06:54:08.787Z,95.40
2019-05-15T06:57:11.874Z,95.40
2019-05-15T07:00:14.768Z,95.60
2019-05-15T07:03:24.956Z,94.20
2019-05-15T07:06:22.547Z,94.40
2019-05-15T07:09:25.522Z,90.80
2019-05-15T07:12:28.425Z,92.00
2019-05-15T07:15:31.687Z,92.10
2019-05-15T07:18:34.612Z,86.40
2019-05-15T07:21:38.781Z,87.30
2019-05-15T07:24:41.947Z,82.00
2019-05-15T07:27:44.851Z,80.40
2019-05-15T07:30:49.573Z,81.70
2019-05-15T07:33:52.786Z,72.90
2019-05-15T07:36:55.704Z,77.40
2019-05-15T07:39:59.194Z,79.40
2019-05-15T07:43:03.781Z,72.60
2019-05-15T07:46:08.421Z,75.40
2019-05-15T07:49:11.517Z,72.50
2019-05-15T07:52:14.795Z,74.70
2019-05-15T07:55:18.562Z,75.80
2019-05-15T07:58:22.112Z,71.70
2019-05-15T08:01:25.620Z,69.70
2019-05-15T08:04:30.660Z,71.00
2019-05-15T08:07:33.372Z,73.60
2019-05-15T08:10:36.329Z,73.60
2019-05-15T08:13:39.518Z,72.60
2019-05-15T08:16:42.448Z,68.40
2019-05-15T08:19:45.708Z,73.00
2019-05-15T08:25:53.444Z,67.50
2019-05-15T08:26:05.671Z,69.00
2019-05-15T08:28:57.942Z,67.40
2019-05-15T08:32:01.013Z,62.30
2019-05-15T08:35:05.080Z,64.40
2019-05-15T08:38:08.865Z,67.30
2019-05-15T08:41:12.019Z,67.60
2019-05-15T08:44:14.963Z,70.20
2019-05-15T08:47:19.123Z,66.90
2019-05-15T08:50:22.704Z,66.60
2019-05-15T08:53:25.623Z,61.90
2019-05-15T08:56:29.065Z,64.90
2019-05-15T08:59:33.444Z,65.60
2019-05-15T09:02:38.276Z,63.00
2019-05-15T09:05:41.455Z,65.00
2019-05-15T09:08:44.380Z,65.50
2019-05-15T09:11:48.300Z,65.30
2019-05-15T09:14:51.825Z,65.60
2019-05-15T09:18:08.039Z,67.90
2019-05-15T09:20:59.611Z,66.80
2019-05-15T09:24:02.617Z,65.70
2019-05-15T09:27:09.435Z,63.60
2019-05-15T09:30:11.460Z,58.60
2019-05-15T09:33:14.384Z,66.60
2019-05-15T09:36:20.133Z,64.80
2019-05-15T09:39:22.477Z,63.30
2019-05-15T09:42:25.381Z,62.30
2019-05-15T09:45:28.642Z,63.60
2019-05-15T09:48:31.997Z,62.10
2019-05-15T09:51:34.920Z,64.10
2019-05-15T09:54:38.742Z,60.80
2019-05-15T09:57:41.858Z,63.00
2019-05-15T10:00:44.873Z,63.00
2019-05-15T10:03:48.494Z,58.20
2019-05-15T10:06:51.621Z,61.60
2019-05-15T10:09:54.539Z,59.10
2019-05-15T10:12:59.439Z,60.90
2019-05-15T10:16:02.604Z,62.60
2019-05-15T10:19:05.533Z,61.00
2019-05-15T10:22:09.659Z,63.30
2019-05-15T10:25:13.143Z,59.50
2019-05-15T10:28:18.754Z,59.70
2019-05-15T10:31:21.538Z,60.50
2019-05-15T10:34:24.500Z,57.80
2019-05-15T10:37:28.427Z,57.10
2019-05-15T10:40:31.556Z,59.00
2019-05-15T10:43:35.292Z,56.20
2019-05-15T10:46:38.359Z,57.30
2019-05-15T10:49:41.319Z,57.20
2019-05-15T10:52:44.239Z,56.20
2019-05-15T10:55:49.571Z,57.60
2019-05-15T10:58:52.315Z,57.60
2019-05-15T11:01:55.224Z,59.20
2019-05-15T11:04:58.500Z,56.80
2019-05-15T11:08:01.407Z,55.00
2019-05-15T11:11:04.329Z,55.60
2019-05-15T11:14:09.098Z,55.50
2019-05-15T11:17:12.074Z,55.90
2019-05-15T11:20:15.606Z,55.00
2019-05-15T11:23:19.906Z,54.90
2019-05-15T11:26:23.341Z,56.80
2019-05-15T11:29:26.262Z,56.20
2019-05-15T11:32:29.484Z,53.90
2019-05-15T11:35:32.616Z,54.00
2019-05-15T11:38:37.989Z,53.70
2019-05-15T11:41:40.376Z,50.50
2019-05-15T11:44:43.376Z,51.70
2019-05-15T11:47:48.305Z,53.00
2019-05-15T11:50:51.142Z,52.90
2019-05-15T11:53:54.415Z,51.70
2019-05-15T11:56:59.648Z,52.20
2019-05-15T12:00:03.763Z,50.40
2019-05-15T12:03:08.964Z,50.80
2019-05-15T12:06:18.494Z,49.40
2019-05-15T12:09:18.748Z,51.10
2019-05-15T12:12:21.816Z,51.70
2019-05-15T12:15:24.732Z,49.60
2019-05-15T12:18:28.571Z,51.00
2019-05-15T12:21:32.059Z,49.80
2019-05-15T12:24:36.758Z,48.50
2019-05-15T12:27:40.509Z,48.10
2019-05-15T12:30:43.622Z,49.30
2019-05-15T12:33:48.878Z,47.30
2019-05-15T12:36:57.448Z,49.60
2019-05-15T13:01:31.581Z,47.20
2019-05-15T13:04:34.498Z,44.40
2019-05-15T13:07:37.917Z,46.60
2019-05-15T13:10:40.988Z,45.90
2019-05-15T13:13:44.353Z,46.00
2019-05-15T13:16:48.021Z,47.70
2019-05-15T13:19:51.500Z,46.10
2019-05-15T13:22:54.398Z,46.20
2019-05-15T13:25:59.389Z,47.50
2019-05-15T13:29:02.470Z,44.90
2019-05-15T13:32:07.904Z,44.40
2019-05-15T13:35:10.819Z,46.00
2019-05-15T13:38:13.753Z,42.90
2019-05-15T13:41:19.021Z,46.40
2019-05-15T13:44:21.628Z,43.60
2019-05-15T13:47:24.563Z,45.50
2019-05-15T13:50:28.486Z,45.20
2019-05-15T13:53:31.600Z,43.80
2019-05-15T13:56:34.529Z,47.20
2019-05-15T13:59:39.083Z,44.40
2019-05-15T14:02:42.272Z,43.90
2019-05-15T14:05:49.767Z,44.50
2019-05-15T14:08:51.651Z,42.50
2019-05-15T14:11:54.579Z,44.30
2019-05-15T14:14:58.897Z,44.70
2019-05-15T14:18:01.825Z,42.60
2019-05-15T14:21:04.814Z,43.70
2019-05-15T14:24:08.955Z,43.40
2019-05-15T14:27:12.168Z,42.20
2019-05-15T14:30:18.051Z,44.30
2019-05-15T14:33:20.362Z,43.50
2019-05-15T14:36:23.303Z,42.80
2019-05-15T14:39:26.217Z,42.50
2019-05-15T14:42:29.467Z,43.10
2019-05-15T14:45:32.509Z,41.90
2019-05-15T14:48:35.488Z,42.70
2019-05-15T14:51:39.110Z,44.30
2019-05-15T14:54:42.344Z,45.60
2019-05-15T14:57:45.277Z,44.60
2019-05-15T15:00:50.022Z,43.90
2019-05-15T15:03:53.687Z,42.30
2019-05-15T15:06:57.988Z,43.70
2019-05-15T15:10:01.467Z,41.30
2019-05-15T15:13:04.388Z,43.20
2019-05-15T15:16:08.372Z,43.20
2019-05-15T15:19:11.646Z,42.90
2019-05-15T15:22:14.524Z,42.70
2019-05-15T15:25:17.444Z,43.90
2019-05-15T15:28:20.702Z,44.70
2019-05-15T15:31:23.661Z,44.90
2019-05-15T15:34:28.245Z,45.80
2019-05-15T15:37:32.499Z,43.20
2019-05-15T15:40:35.429Z,43.80
2019-05-15T15:43:38.817Z,43.50
2019-05-15T15:46:41.852Z,45.20
2019-05-15T15:49:44.875Z,46.40
2019-05-15T15:52:48.871Z,44.20
2019-05-15T15:55:52.101Z,43.00
2019-05-15T15:58:55.327Z,45.00
2019-05-15T16:01:59.895Z,43.50
2019-05-15T16:05:03.490Z,45.70
2019-05-15T16:08:08.517Z,46.20
2019-05-15T16:11:11.645Z,46.30
2019-05-15T16:14:14.899Z,45.70
2019-05-15T16:17:18.283Z,45.90
2019-05-15T16:20:21.245Z,46.40
2019-05-15T16:23:24.138Z,46.40
2019-05-15T16:26:29.045Z,47.00
2019-05-15T16:29:32.277Z,48.70
2019-05-15T16:32:35.496Z,47.80
2019-05-15T16:35:38.411Z,48.50
2019-05-15T16:38:41.367Z,47.60
2019-05-15T16:41:44.310Z,47.70
2019-05-15T16:44:49.017Z,50.90
2019-05-15T16:47:52.085Z,50.40
2019-05-15T16:50:55.019Z,48.30
2019-05-15T16:53:58.194Z,45.00
2019-05-15T16:57:01.253Z,46.20
2019-05-15T17:00:04.756Z,46.00
2019-05-15T17:03:13.904Z,45.10
2019-05-15T17:06:12.615Z,46.90
2019-05-15T17:09:21.070Z,46.90
2019-05-15T17:12:20.379Z,46.80
2019-05-15T17:15:23.294Z,46.60
2019-05-15T17:18:26.907Z,47.00
2019-05-15T17:21:29.903Z,48.00
2019-05-15T17:24:32.807Z,46.70
2019-05-15T17:27:36.476Z,46.60
2019-05-15T17:30:39.390Z,47.20
2019-05-15T17:33:43.765Z,46.70
2019-05-15T17:36:48.871Z,46.90
2019-05-15T17:39:51.537Z,46.20
2019-05-15T17:42:54.483Z,47.30
2019-05-15T17:45:58.445Z,47.80
2019-05-15T17:49:08.222Z,48.80
2019-05-15T17:52:06.264Z,48.80
2019-05-15T17:55:10.088Z,48.20
2019-05-15T17:58:13.008Z,49.20
2019-05-15T18:01:15.933Z,48.20
2019-05-15T18:04:19.157Z,49.20
2019-05-15T18:07:22.252Z,49.70
2019-05-15T18:10:25.276Z,51.60
2019-05-15T18:13:28.762Z,50.90
2019-05-15T18:16:32.320Z,52.10
2019-05-15T18:19:37.691Z,53.90
2019-05-15T18:22:40.417Z,53.40
2019-05-15T18:25:43.422Z,52.80
2019-05-15T18:28:48.762Z,53.00
2019-05-15T18:31:51.298Z,52.80
2019-05-15T18:34:54.613Z,52.20
2019-05-15T18:37:59.188Z,53.90
2019-05-15T18:41:03.873Z,54.00
2019-05-15T18:44:06.998Z,55.60
2019-05-15T18:47:10.750Z,56.60
2019-05-15T18:50:14.401Z,56.70
2019-05-15T18:53:17.325Z,57.50
2019-05-15T18:56:20.968Z,57.40
2019-05-15T18:59:24.016Z,56.80
2019-05-15T19:02:28.088Z,57.10
2019-05-15T19:05:31.167Z,57.50
2019-05-15T19:08:34.096Z,58.50
2019-05-15T19:11:38.420Z,57.80
2019-05-15T19:14:41.527Z,58.50
2019-05-15T19:17:44.854Z,59.80
2019-05-15T19:20:48.650Z,59.00
2019-05-15T19:23:51.669Z,59.20
2019-05-15T19:26:54.681Z,59.80
2019-05-15T19:29:59.056Z,60.60
2019-05-15T19:33:02.251Z,60.90
2019-05-15T19:36:07.762Z,61.00
2019-05-15T19:39:11.358Z,61.30
2019-05-15T19:42:14.439Z,61.20
2019-05-15T19:45:18.192Z,61.20
2019-05-15T19:48:21.225Z,61.80
2019-05-15T19:51:24.172Z,62.80
2019-05-15T19:54:28.892Z,62.40
2019-05-15T19:57:32.020Z,62.60
2019-05-15T20:00:35.126Z,62.20
2019-05-15T20:03:49.345Z,61.80
2019-05-15T20:06:44.742Z,62.70
2019-05-15T20:09:47.791Z,63.30
2019-05-15T20:12:50.985Z,63.10
2019-05-15T20:15:54.084Z,63.60
2019-05-15T20:18:58.118Z,63.90
2019-05-15T20:22:01.563Z,63.80
2019-05-15T20:25:08.274Z,63.90
2019-05-15T20:28:11.907Z,64.20
2019-05-15T20:31:15.116Z,63.80
2019-05-15T20:34:18.136Z,63.80
2019-05-15T20:37:21.174Z,63.70
2019-05-15T20:40:24.352Z,64.90
2019-05-15T20:43:28.010Z,65.40
2019-05-15T20:46:31.321Z,66.10
2019-05-15T20:49:34.244Z,67.00
2019-05-15T20:52:39.374Z,66.90
2019-05-15T20:55:43.219Z,66.30
2019-05-15T20:58:47.846Z,66.10
2019-05-15T21:01:51.311Z,66.30
2019-05-15T21:04:54.499Z,66.50
2019-05-15T21:07:57.665Z,67.50
2019-05-15T21:11:00.649Z,68.10
2019-05-15T21:14:03.853Z,68.40
2019-05-15T21:17:08.267Z,68.50
2019-05-15T21:20:12.059Z,67.70
2019-05-15T21:23:14.969Z,69.10
2019-05-15T21:26:18.763Z,69.40
2019-05-15T21:29:21.989Z,69.40
2019-05-15T21:32:25.232Z,68.70
2019-05-15T21:35:30.392Z,69.50
2019-05-15T21:38:33.338Z,69.80
2019-05-15T21:41:38.514Z,69.70
2019-05-15T21:44:41.099Z,70.70
2019-05-15T21:47:44.033Z,69.70
2019-05-15T21:50:48.317Z,71.00
2019-05-15T21:53:51.497Z,72.00
2019-05-15T21:57:06.653Z,71.40
2019-05-15T22:00:00.670Z,71.50
2019-05-15T22:03:05.200Z,72.50
2019-05-15T22:06:08.740Z,72.40
2019-05-15T22:09:18.260Z,72.70
2019-05-15T22:12:21.242Z,73.30
2019-05-15T22:15:24.270Z,73.20
2019-05-15T22:18:28.041Z,72.90
2019-05-15T22:21:31.764Z,73.60
2019-05-15T22:24:35.008Z,73.60
2019-05-15T22:27:38.449Z,74.40
2019-05-15T22:30:41.469Z,74.80
2019-05-15T22:33:44.371Z,75.90
2019-05-15T22:36:50.541Z,76.00
2019-05-15T22:39:53.311Z,76.90
2019-05-15T22:42:58.849Z,77.00
2019-05-15T22:46:01.103Z,79.60
2019-05-15T22:49:04.001Z,80.20
2019-05-15T22:52:08.549Z,80.50
2019-05-15T22:55:12.345Z,80.80
2019-05-15T22:58:15.570Z,82.20
2019-05-15T23:01:18.918Z,82.00
2019-05-15T23:04:23.212Z,82.10
2019-05-15T23:07:28.109Z,82.40
2019-05-15T23:10:31.563Z,81.90
2019-05-15T23:13:34.486Z,82.00
2019-05-15T23:16:39.085Z,81.40
2019-05-15T23:19:42.230Z,81.90
2019-05-15T23:22:45.162Z,81.80
2019-05-15T23:25:49.181Z,81.70
2019-05-15T23:28:52.150Z,81.70
2019-05-15T23:31:55.050Z,82.00
2019-05-15T23:34:58.458Z,82.10
2019-05-15T23:38:01.471Z,83.20
2019-05-15T23:41:04.402Z,83.10
2019-05-15T23:44:08.261Z,83.30
2019-05-15T23:47:11.328Z,83.80
2019-05-15T23:50:14.611Z,83.50
2019-05-15T23:53:19.581Z,84.00
2019-05-15T23:56:22.849Z,84.90
2019-05-15T23:59:28.064Z,84.40
